createdAt,value
2022-09-04T00:01:21.958Z,9.30
2022-09-04T00:11:45.635Z,9.50
2022-09-04T00:21:55.343Z,9.60
2022-09-04T00:32:11.745Z,9.40
2022-09-04T00:42:43.764Z,9.30
2022-09-04T00:53:38.039Z,9.20
2022-09-04T01:04:19.516Z,9.00
2022-09-04T01:14:40.377Z,9.10
2022-09-04T01:25:05.948Z,9.10
2022-09-04T01:35:24.301Z,8.90
2022-09-04T01:45:47.081Z,8.70
2022-09-04T01:56:04.335Z,8.50
2022-09-04T02:06:18.232Z,8.30
2022-09-04T02:16:39.121Z,8.20
2022-09-04T02:26:50.625Z,8.10
2022-09-04T02:37:02.088Z,8.40
2022-09-04T02:47:19.061Z,8.70
2022-09-04T02:57:40.690Z,8.80
2022-09-04T03:07:52.797Z,8.60
2022-09-04T03:18:07.062Z,8.50
2022-09-04T03:28:33.290Z,8.40
2022-09-04T03:38:50.980Z,8.30
2022-09-04T03:49:14.498Z,8.20
2022-09-04T03:59:33.928Z,8.10
2022-09-04T04:09:56.204Z,8.10
2022-09-04T04:20:22.917Z,8.20
2022-09-04T04:30:30.328Z,8.50
2022-09-04T04:40:53.020Z,8.80
2022-09-04T04:51:14.128Z,9.40
2022-09-04T05:01:42.625Z,10.10
2022-09-04T05:11:56.524Z,10.70
2022-09-04T05:22:13.238Z,11.20
2022-09-04T05:32:26.477Z,11.40
2022-09-04T05:43:01.406Z,11.60
2022-09-04T05:53:56.177Z,11.60
2022-09-04T06:04:37.042Z,11.50
2022-09-04T06:15:05.388Z,11.20
2022-09-04T06:25:43.322Z,11.50
2022-09-04T06:36:35.963Z,11.60
2022-09-04T06:46:46.402Z,12.00
2022-09-04T06:57:15.494Z,12.00
2022-09-04T07:07:30.830Z,12.10
2022-09-04T07:17:42.022Z,12.20
2022-09-04T07:28:08.559Z,12.30
2022-09-04T07:38:22.445Z,13.00
2022-09-04T07:48:36.720Z,13.80
2022-09-04T07:59:21.680Z,14.50
2022-09-04T08:09:44.435Z,15.40
2022-09-04T08:19:58.950Z,21.00
2022-09-04T08:30:08.406Z,26.50
2022-09-04T08:40:39.030Z,27.50
2022-09-04T08:51:34.327Z,24.30
2022-09-04T09:02:14.964Z,25.70
2022-09-04T09:13:13.088Z,23.80
2022-09-04T09:23:20.246Z,22.30
2022-09-04T09:34:10.785Z,21.10
2022-09-04T09:45:11.442Z,19.80
2022-09-04T09:56:04.656Z,19.00
2022-09-04T10:07:10.535Z,18.60
2022-09-04T10:18:33.039Z,18.20
2022-09-04T10:29:28.924Z,17.90
2022-09-04T10:40:07.079Z,17.90
2022-09-04T10:50:49.447Z,18.10
2022-09-04T11:01:30.354Z,18.50
2022-09-04T11:12:09.676Z,19.40
2022-09-04T11:23:03.080Z,19.40
2022-09-04T11:33:57.865Z,18.70
2022-09-04T11:44:45.493Z,18.50
2022-09-04T11:55:26.302Z,18.90
2022-09-04T12:06:00.870Z,20.00
2022-09-04T12:17:15.675Z,23.40
2022-09-04T12:28:02.923Z,23.90
2022-09-04T12:38:29.716Z,22.50
2022-09-04T12:48:46.245Z,21.00
2022-09-04T12:59:19.149Z,20.60
2022-09-04T13:09:34.041Z,19.80
2022-09-04T13:19:48.253Z,19.50
2022-09-04T13:30:08.154Z,19.70
2022-09-04T13:40:25.530Z,20.20
2022-09-04T13:50:36.868Z,20.00
2022-09-04T14:00:47.123Z,20.30
2022-09-04T14:11:22.241Z,20.00
2022-09-04T14:21:45.740Z,19.90
2022-09-04T14:31:59.650Z,19.40
2022-09-04T14:42:22.344Z,18.90
2022-09-04T14:52:36.667Z,18.60
2022-09-04T15:02:47.132Z,18.40
2022-09-04T15:13:11.787Z,18.10
2022-09-04T15:23:24.709Z,18.00
2022-09-04T15:33:30.420Z,17.70
2022-09-04T15:43:41.191Z,17.60
2022-09-04T15:53:55.154Z,17.30
2022-09-04T16:04:12.754Z,17.10
2022-09-04T16:14:25.466Z,16.70
2022-09-04T16:24:36.704Z,16.60
2022-09-04T16:34:49.380Z,16.40
2022-09-04T16:44:59.648Z,16.20
2022-09-04T16:55:12.225Z,16.10
2022-09-04T17:05:28.790Z,15.80
2022-09-04T17:15:44.629Z,15.60
2022-09-04T17:29:14.170Z,15.40
2022-09-04T17:40:38.039Z,15.30
2022-09-04T17:47:21.549Z,15.20
2022-09-04T17:57:46.500Z,15.00
2022-09-04T18:08:07.316Z,14.90
2022-09-04T18:18:24.979Z,14.80
2022-09-04T18:28:40.168Z,14.60
2022-09-04T18:39:08.839Z,14.60
2022-09-04T18:50:44.669Z,14.60
2022-09-04T18:59:53.754Z,14.50
2022-09-04T19:10:24.032Z,14.40
2022-09-04T19:20:46.645Z,14.40
2022-09-04T19:30:56.393Z,14.40
2022-09-04T19:46:04.665Z,14.30
2022-09-04T19:53:24.059Z,14.10
2022-09-04T20:02:31.622Z,14.00
2022-09-04T20:12:42.404Z,13.90
2022-09-04T20:22:51.593Z,13.80
2022-09-04T20:33:03.350Z,13.60
2022-09-04T20:43:21.122Z,13.60
2022-09-04T20:53:36.677Z,13.50
2022-09-04T21:03:56.989Z,13.20
2022-09-04T21:14:06.412Z,12.70
2022-09-04T21:24:55.039Z,12.30
2022-09-04T21:35:08.769Z,12.40
2022-09-04T21:45:38.113Z,12.70
2022-09-04T21:57:49.082Z,12.90
2022-09-04T22:08:02.409Z,13.00
2022-09-04T22:17:36.617Z,13.10
2022-09-04T22:28:31.159Z,13.00
2022-09-04T22:39:20.709Z,12.60
2022-09-04T22:50:02.662Z,12.10
2022-09-04T23:00:12.153Z,11.70
2022-09-04T23:13:50.739Z,11.40
2022-09-04T23:26:38.134Z,11.30
2022-09-04T23:32:13.356Z,11.00
2022-09-04T23:43:07.461Z,10.90
2022-09-04T23:53:27.905Z,10.80
